Time;durP1;ratioP1;P1;durP2;ratioP2;P2;SDS_P1;SDS_P2;PMS_P1;PMS_P2;Temp;Humidity;BMP_temperature;BMP_pressure;BME280_temperature;BME280_humidity;BME280_pressure;Samples;Min_cycle;Max_cycle;Signal;HPM_P1;HPM_P2
2023/08/11 00:03:00;;;;;;;2.10;2.00;;;18.70;33.30;;;;;;10269904;28;20239;-71
2023/08/11 00:08:05;;;;;;;2.13;1.90;;;18.70;33.80;;;;;;10264072;28;20854;-71
2023/08/11 00:13:12;;;;;;;1.83;1.67;;;18.70;33.20;;;;;;10269298;28;20235;-71
2023/08/11 00:18:17;;;;;;;3.03;1.93;;;18.70;33.00;;;;;;10264727;28;20335;-71
2023/08/11 00:23:20;;;;;;;1.80;1.70;;;18.70;33.30;;;;;;10273279;28;20322;-71
2023/08/11 00:28:23;;;;;;;2.17;1.70;;;18.70;33.10;;;;;;10262645;28;20577;-70
2023/08/11 00:33:28;;;;;;;2.10;2.00;;;18.70;33.10;;;;;;10262897;28;20251;-71
2023/08/11 00:38:38;;;;;;;2.27;1.80;;;18.70;33.60;;;;;;10264473;28;20287;-71
2023/08/11 00:43:41;;;;;;;2.33;1.53;;;18.70;34.00;;;;;;10263946;28;20334;-71
2023/08/11 00:48:50;;;;;;;2.40;2.20;;;18.70;33.20;;;;;;10268487;28;20246;-71
2023/08/11 00:53:54;;;;;;;2.20;1.97;;;18.60;33.50;;;;;;10266582;28;20353;-71
2023/08/11 00:58:57;;;;;;;2.23;2.03;;;18.50;33.30;;;;;;10264158;28;20883;-71
2023/08/11 01:04:04;;;;;;;2.40;2.20;;;18.60;33.50;;;;;;10262620;28;20706;-71
2023/08/11 01:09:15;;;;;;;2.17;2.07;;;18.50;33.70;;;;;;10260986;28;20283;-71
2023/08/11 01:14:26;;;;;;;2.50;2.30;;;18.30;34.20;;;;;;10267559;28;20244;-71
2023/08/11 01:19:35;;;;;;;2.30;2.20;;;18.20;34.50;;;;;;10265911;28;20299;-71
2023/08/11 01:24:40;;;;;;;2.67;2.40;;;18.10;34.80;;;;;;10264287;28;20228;-71
2023/08/11 01:29:44;;;;;;;2.03;1.70;;;18.20;34.50;;;;;;10262797;28;20571;-71
2023/08/11 01:34:47;;;;;;;1.80;1.70;;;18.10;33.90;;;;;;10269740;28;20255;-71
2023/08/11 01:39:53;;;;;;;1.97;1.87;;;18.10;33.90;;;;;;10266682;28;20232;-71
2023/08/11 01:44:56;;;;;;;2.30;2.10;;;18.10;34.30;;;;;;10264703;28;20223;-71
2023/08/11 01:50:02;;;;;;;2.50;2.13;;;18.10;34.00;;;;;;10265510;28;20232;-71
2023/08/11 01:55:09;;;;;;;2.20;2.10;;;18.10;34.00;;;;;;10264473;28;20227;-71
2023/08/11 02:00:13;;;;;;;2.50;2.30;;;18.10;34.50;;;;;;10265851;28;20596;-71
2023/08/11 02:05:16;;;;;;;2.33;2.13;;;18.10;34.00;;;;;;10256610;28;20324;-71
2023/08/11 02:10:21;;;;;;;2.30;2.10;;;18.10;34.10;;;;;;10267380;28;20242;-71
2023/08/11 02:15:24;;;;;;;1.93;1.83;;;18.10;34.40;;;;;;10268170;28;20651;-70
2023/08/11 02:20:29;;;;;;;3.37;2.10;;;18.00;34.00;;;;;;10267511;28;20236;-71
2023/08/11 02:25:33;;;;;;;2.07;1.97;;;18.00;34.00;;;;;;10258899;28;20334;-71
2023/08/11 02:30:37;;;;;;;2.03;1.90;;;18.00;34.50;;;;;;10258276;28;20237;-71
2023/08/11 02:35:40;;;;;;;2.73;2.20;;;17.90;34.10;;;;;;10263649;28;20323;-71
2023/08/11 02:40:44;;;;;;;2.87;2.40;;;17.80;34.10;;;;;;10264553;28;20315;-71
2023/08/11 02:45:48;;;;;;;2.10;2.00;;;17.70;34.50;;;;;;10264507;28;20234;-70
2023/08/11 02:50:51;;;;;;;2.37;2.17;;;17.70;34.50;;;;;;10260801;28;20314;-71
2023/08/11 02:55:56;;;;;;;2.70;2.20;;;17.70;34.50;;;;;;10258145;28;20232;-70
2023/08/11 03:00:59;;;;;;;2.10;1.90;;;17.60;34.40;;;;;;10265837;28;20283;-71
2023/08/11 03:06:03;;;;;;;2.00;1.90;;;17.60;34.40;;;;;;10270486;28;20236;-71
2023/08/11 03:11:08;;;;;;;2.00;1.90;;;17.60;34.40;;;;;;10272180;28;20326;-71
2023/08/11 03:16:11;;;;;;;1.97;1.77;;;17.60;34.40;;;;;;10267194;28;20720;-70
2023/08/11 03:21:14;;;;;;;1.70;1.60;;;17.50;34.30;;;;;;10276601;28;20800;-71
2023/08/11 03:26:23;;;;;;;2.23;2.03;;;17.40;34.20;;;;;;10271414;28;20243;-71
2023/08/11 03:31:27;;;;;;;2.07;1.97;;;17.50;34.30;;;;;;10263452;28;20244;-71
2023/08/11 03:36:30;;;;;;;2.03;1.93;;;17.40;34.30;;;;;;10271373;28;20232;-71
2023/08/11 03:41:35;;;;;;;1.90;1.80;;;17.40;34.20;;;;;;10267404;28;20232;-71
2023/08/11 03:46:38;;;;;;;2.20;2.03;;;17.40;34.20;;;;;;10265298;28;20298;-70
2023/08/11 03:51:42;;;;;;;5.27;1.97;;;17.30;34.10;;;;;;10260127;28;20236;-71
2023/08/11 03:56:46;;;;;;;2.10;1.93;;;17.30;34.10;;;;;;10263479;28;20235;-71
2023/08/11 04:01:50;;;;;;;2.33;1.70;;;17.30;34.70;;;;;;10267301;28;20331;-70
2023/08/11 04:06:53;;;;;;;1.87;1.77;;;17.20;34.30;;;;;;10269138;28;20235;-71
2023/08/11 04:11:57;;;;;;;2.83;2.00;;;17.20;34.50;;;;;;10266455;28;20244;-71
2023/08/11 04:17:01;;;;;;;2.10;2.00;;;17.20;34.80;;;;;;10267518;28;20326;-71
2023/08/11 04:22:05;;;;;;;2.30;2.10;;;17.10;34.70;;;;;;10265643;28;20235;-70
2023/08/11 04:27:10;;;;;;;1.70;1.60;;;17.10;34.70;;;;;;10261208;28;20283;-71
2023/08/11 04:32:13;;;;;;;3.63;2.20;;;17.00;34.80;;;;;;10262318;28;20236;-71
2023/08/11 04:37:18;;;;;;;3.17;2.20;;;17.00;34.60;;;;;;10268305;28;20678;-71
2023/08/11 04:42:22;;;;;;;3.43;1.97;;;16.90;34.70;;;;;;10267284;28;21799;-71
2023/08/11 04:47:26;;;;;;;2.30;2.10;;;16.70;35.30;;;;;;10267476;28;20239;-71
2023/08/11 04:52:29;;;;;;;3.00;1.70;;;16.60;35.20;;;;;;10261552;28;20637;-71
2023/08/11 04:57:34;;;;;;;2.07;1.97;;;16.60;35.40;;;;;;10260296;28;20340;-70
2023/08/11 05:02:37;;;;;;;2.97;2.20;;;16.50;36.10;;;;;;10267995;28;20235;-71
2023/08/11 05:07:41;;;;;;;2.37;2.10;;;16.50;35.90;;;;;;10268782;28;20330;-71
2023/08/11 05:12:45;;;;;;;2.77;2.37;;;16.50;36.10;;;;;;10273518;28;20760;-70
2023/08/11 05:17:48;;;;;;;2.67;2.37;;;16.40;36.70;;;;;;10264311;28;20238;-70
2023/08/11 05:22:52;;;;;;;2.43;2.30;;;16.40;36.60;;;;;;10269125;28;20243;-71
2023/08/11 05:27:57;;;;;;;3.00;2.80;;;16.50;36.70;;;;;;10264574;28;20236;-71
2023/08/11 05:33:00;;;;;;;2.67;2.47;;;16.50;37.60;;;;;;10256871;28;20321;-71
2023/08/11 05:38:03;;;;;;;3.47;2.50;;;16.60;37.20;;;;;;10262879;28;20260;-70
2023/08/11 05:43:08;;;;;;;3.00;2.80;;;16.60;37.40;;;;;;10268860;28;20234;-71
2023/08/11 05:48:11;;;;;;;2.67;2.50;;;16.70;38.10;;;;;;10261952;28;20248;-71
2023/08/11 05:53:15;;;;;;;3.13;2.87;;;16.80;37.60;;;;;;10261642;28;20709;-71
2023/08/11 05:58:20;;;;;;;2.83;2.63;;;16.90;37.90;;;;;;10256419;28;20342;-71
2023/08/11 06:03:29;;;;;;;3.03;2.83;;;17.10;38.50;;;;;;10259518;28;20928;-71
2023/08/11 06:08:34;;;;;;;3.40;3.17;;;17.20;38.30;;;;;;10260052;28;21006;-71
2023/08/11 06:13:38;;;;;;;3.00;2.80;;;17.30;38.00;;;;;;10259633;28;20227;-70
2023/08/11 06:18:41;;;;;;;3.17;2.97;;;17.40;38.70;;;;;;10262555;28;20244;-71
2023/08/11 06:23:45;;;;;;;3.50;3.20;;;17.50;38.60;;;;;;10265060;28;20241;-71
2023/08/11 06:28:49;;;;;;;3.87;3.57;;;17.70;38.80;;;;;;10268899;28;20505;-70
2023/08/11 06:33:53;;;;;;;3.57;3.30;;;17.80;39.40;;;;;;10257674;28;20231;-71
2023/08/11 06:38:56;;;;;;;3.87;3.57;;;17.90;39.10;;;;;;10274521;28;20236;-71
2023/08/11 06:44:00;;;;;;;3.67;3.37;;;18.10;39.50;;;;;;10267266;28;20856;-71
2023/08/11 06:49:04;;;;;;;4.10;3.80;;;18.30;40.40;;;;;;10272637;28;20283;-71
2023/08/11 06:54:07;;;;;;;4.23;3.30;;;18.50;40.00;;;;;;10273852;28;20232;-71
2023/08/11 06:59:12;;;;;;;4.47;3.27;;;18.70;40.60;;;;;;10278409;28;20255;-71
2023/08/11 07:04:15;;;;;;;4.07;3.10;;;18.90;40.40;;;;;;10271678;28;20839;-71
2023/08/11 07:09:18;;;;;;;3.20;2.90;;;19.10;39.80;;;;;;10271989;28;20262;-71
2023/08/11 07:14:23;;;;;;;3.03;2.80;;;19.30;40.10;;;;;;10267987;28;20236;-71
2023/08/11 07:19:26;;;;;;;2.87;2.67;;;19.50;40.60;;;;;;10271614;28;20830;-71
2023/08/11 07:24:29;;;;;;;3.50;3.00;;;19.80;40.40;;;;;;10267888;28;20720;-71
2023/08/11 07:29:34;;;;;;;3.90;2.60;;;20.10;40.70;;;;;;10269015;28;20261;-71
2023/08/11 07:34:38;;;;;;;2.90;2.70;;;20.30;40.50;;;;;;10267773;28;20231;-71
2023/08/11 07:39:42;;;;;;;3.50;3.20;;;20.50;40.20;;;;;;10268287;28;21038;-71
2023/08/11 07:44:46;;;;;;;3.17;2.87;;;20.80;40.30;;;;;;10272809;28;20279;-71
2023/08/11 07:49:50;;;;;;;3.50;3.20;;;21.00;40.50;;;;;;10271273;28;20255;-70
2023/08/11 07:54:53;;;;;;;2.87;2.67;;;21.30;40.20;;;;;;10267690;28;20266;-71
2023/08/11 07:59:58;;;;;;;3.23;2.93;;;21.60;40.10;;;;;;10273714;28;20236;-71
2023/08/11 08:05:01;;;;;;;3.00;2.80;;;22.00;40.60;;;;;;10268950;28;20322;-71
2023/08/11 08:10:14;;;;;;;3.30;3.10;;;22.20;39.90;;;;;;10271842;28;21001;-71
2023/08/11 08:15:20;;;;;;;3.37;3.07;;;22.50;39.80;;;;;;10264778;28;20326;-71
2023/08/11 08:20:24;;;;;;;3.60;3.27;;;22.70;39.90;;;;;;10271479;28;20243;-71
2023/08/11 08:25:27;;;;;;;3.00;2.80;;;23.00;39.20;;;;;;10266645;28;20821;-71
2023/08/11 08:30:32;;;;;;;3.23;3.03;;;23.30;39.50;;;;;;10268421;28;20235;-71
2023/08/11 08:35:36;;;;;;;3.03;2.83;;;23.50;39.60;;;;;;10265746;28;20260;-71
2023/08/11 08:40:39;;;;;;;3.50;2.93;;;23.70;39.20;;;;;;10263062;28;20243;-70
2023/08/11 08:45:45;;;;;;;3.10;2.90;;;24.00;39.00;;;;;;10270443;28;20247;-71
2023/08/11 08:50:48;;;;;;;3.23;2.93;;;24.20;39.10;;;;;;10271395;28;20239;-71
2023/08/11 08:55:51;;;;;;;2.90;2.70;;;24.50;38.90;;;;;;10265862;28;20220;-71
2023/08/11 09:00:56;;;;;;;3.20;3.00;;;24.70;38.60;;;;;;10265838;28;20235;-71
2023/08/11 09:06:00;;;;;;;3.27;3.07;;;25.10;38.00;;;;;;10263915;28;20283;-71
2023/08/11 09:11:03;;;;;;;3.43;3.23;;;25.40;37.90;;;;;;10267285;28;20274;-71
2023/08/11 09:16:08;;;;;;;3.20;3.00;;;25.70;37.60;;;;;;10263293;28;20239;-71
2023/08/11 09:21:12;;;;;;;3.77;3.00;;;25.90;37.00;;;;;;10272491;28;20239;-71
2023/08/11 09:26:15;;;;;;;3.73;2.90;;;26.20;36.70;;;;;;10264378;28;20243;-71
2023/08/11 09:31:22;;;;;;;4.03;2.63;;;26.30;36.20;;;;;;10268402;28;20267;-71
2023/08/11 09:36:26;;;;;;;3.40;2.97;;;26.60;34.20;;;;;;10259663;28;20310;-71
2023/08/11 09:41:29;;;;;;;2.87;2.60;;;26.80;34.80;;;;;;10266908;28;21007;-71
2023/08/11 09:46:37;;;;;;;2.87;2.67;;;27.10;35.10;;;;;;10266149;28;20282;-71
2023/08/11 09:51:41;;;;;;;3.00;2.70;;;27.30;32.90;;;;;;10259905;28;20613;-71
2023/08/11 09:56:45;;;;;;;2.93;2.73;;;27.50;33.60;;;;;;10266682;28;20287;-71
2023/08/11 10:01:54;;;;;;;2.90;2.70;;;27.70;33.50;;;;;;10263856;28;20286;-71
2023/08/11 10:07:00;;;;;;;3.50;2.70;;;27.90;32.40;;;;;;10263896;28;20231;-71
2023/08/11 10:12:05;;;;;;;2.80;2.60;;;28.10;32.00;;;;;;10268018;28;20236;-71
2023/08/11 10:17:12;;;;;;;2.67;2.47;;;28.30;31.50;;;;;;10269586;28;20239;-71
2023/08/11 10:22:16;;;;;;;2.60;2.47;;;28.40;30.50;;;;;;10275496;28;20314;-71
2023/08/11 10:27:19;;;;;;;2.40;2.30;;;28.60;31.20;;;;;;10268986;28;20282;-71
2023/08/11 10:32:29;;;;;;;2.53;2.37;;;28.70;30.70;;;;;;10269133;28;20250;-71
2023/08/11 10:37:33;;;;;;;2.63;2.43;;;28.90;29.80;;;;;;10274203;28;20288;-71
2023/08/11 10:42:37;;;;;;;3.20;2.47;;;29.00;30.90;;;;;;10271473;28;20238;-70
2023/08/11 10:47:51;;;;;;;2.10;2.00;;;29.10;29.50;;;;;;10262293;28;20232;-71
2023/08/11 10:53:07;;;;;;;2.43;2.33;;;29.20;28.50;;;;;;10274695;28;20239;-71
2023/08/11 10:58:11;;;;;;;2.40;2.20;;;29.20;28.80;;;;;;10270831;28;20236;-71
2023/08/11 11:03:16;;;;;;;2.30;2.13;;;29.30;29.10;;;;;;10278091;28;20323;-71
2023/08/11 11:08:19;;;;;;;2.37;2.27;;;29.30;28.60;;;;;;10276404;28;20278;-71
2023/08/11 11:13:23;;;;;;;2.37;2.27;;;29.40;29.20;;;;;;10267094;28;20314;-71
2023/08/11 11:18:28;;;;;;;2.43;2.33;;;29.50;28.50;;;;;;10263576;28;20240;-70
2023/08/11 11:23:31;;;;;;;2.73;2.53;;;29.50;27.90;;;;;;10273187;28;20250;-71
2023/08/11 11:28:35;;;;;;;2.40;2.20;;;29.70;28.50;;;;;;10269550;28;20236;-70
2023/08/11 11:33:40;;;;;;;2.37;2.17;;;29.70;28.50;;;;;;10265889;28;20247;-70
2023/08/11 11:38:44;;;;;;;2.80;2.50;;;29.80;27.40;;;;;;10268062;28;20232;-71
2023/08/11 11:43:49;;;;;;;2.00;1.90;;;29.90;28.10;;;;;;10263238;28;20575;-71
2023/08/11 11:48:54;;;;;;;2.47;2.23;;;30.00;27.50;;;;;;10265735;28;20242;-71
2023/08/11 11:53:59;;;;;;;2.37;2.17;;;30.10;27.10;;;;;;10264347;28;20231;-71
2023/08/11 11:59:02;;;;;;;2.20;2.10;;;30.10;27.30;;;;;;10271102;28;20232;-70
2023/08/11 12:04:08;;;;;;;2.63;2.37;;;30.10;27.00;;;;;;10263499;28;20322;-70
2023/08/11 12:09:11;;;;;;;2.50;2.30;;;30.20;26.50;;;;;;10267820;28;20244;-70
2023/08/11 12:14:14;;;;;;;2.10;2.00;;;30.20;27.60;;;;;;10260983;28;20248;-71
2023/08/11 12:19:19;;;;;;;2.30;2.20;;;30.30;26.90;;;;;;10267359;28;20241;-70
2023/08/11 12:24:23;;;;;;;2.20;2.10;;;30.30;26.50;;;;;;10263357;28;20697;-70
2023/08/11 12:29:26;;;;;;;2.43;2.27;;;30.40;27.00;;;;;;10266789;28;20330;-70
2023/08/11 12:34:31;;;;;;;2.80;2.40;;;30.50;26.50;;;;;;10268866;28;20251;-70
2023/08/11 12:39:34;;;;;;;2.60;2.50;;;30.40;25.80;;;;;;10264065;28;20299;-71
2023/08/11 12:44:38;;;;;;;2.50;2.30;;;30.50;26.50;;;;;;10269010;28;20243;-70
2023/08/11 12:49:43;;;;;;;2.10;2.00;;;30.50;26.40;;;;;;10265271;28;20232;-70
2023/08/11 12:54:46;;;;;;;2.07;1.97;;;30.50;26.30;;;;;;10262469;28;20235;-70
2023/08/11 12:59:50;;;;;;;3.97;2.30;;;30.50;26.50;;;;;;10262221;28;20318;-71
2023/08/11 13:04:54;;;;;;;2.37;2.27;;;30.60;26.40;;;;;;10259731;28;20251;-70
2023/08/11 13:09:57;;;;;;;2.47;2.27;;;30.70;25.40;;;;;;10259174;28;20250;-70
2023/08/11 13:15:00;;;;;;;2.30;2.00;;;30.70;25.70;;;;;;10265434;28;20311;-70
2023/08/11 13:20:09;;;;;;;2.50;2.30;;;30.70;25.60;;;;;;10254480;28;20228;-70
2023/08/11 13:25:13;;;;;;;3.23;2.30;;;30.70;24.60;;;;;;10258183;28;20317;-70
2023/08/11 13:30:16;;;;;;;2.40;2.20;;;30.70;25.50;;;;;;10262065;28;20614;-70
2023/08/11 13:35:21;;;;;;;2.50;2.30;;;30.70;25.60;;;;;;10262709;28;20740;-70
2023/08/11 13:40:24;;;;;;;2.33;2.13;;;30.70;25.00;;;;;;10261647;28;20291;-70
2023/08/11 13:45:27;;;;;;;2.20;2.10;;;30.80;25.30;;;;;;10263475;28;20237;-70
2023/08/11 13:50:32;;;;;;;2.40;2.30;;;30.80;24.80;;;;;;10259709;28;20262;-70
2023/08/11 13:55:35;;;;;;;2.30;2.20;;;30.80;24.70;;;;;;10255217;28;20257;-70
2023/08/11 14:00:39;;;;;;;2.37;2.10;;;30.80;25.20;;;;;;10264064;28;20751;-70
2023/08/11 14:05:43;;;;;;;2.30;2.20;;;30.70;24.70;;;;;;10263875;28;20652;-70
2023/08/11 14:10:46;;;;;;;2.30;2.20;;;30.80;24.50;;;;;;10252600;28;20318;-70
2023/08/11 14:15:50;;;;;;;2.10;2.00;;;30.80;24.90;;;;;;10261339;28;20286;-70
2023/08/11 14:20:54;;;;;;;2.50;1.80;;;30.80;24.80;;;;;;10264433;28;20323;-70
2023/08/11 14:25:58;;;;;;;2.10;2.00;;;30.80;24.60;;;;;;10257443;28;20298;-70
2023/08/11 14:31:01;;;;;;;1.90;1.80;;;30.80;24.70;;;;;;10262310;28;20262;-70
2023/08/11 14:36:06;;;;;;;2.03;1.93;;;30.90;24.30;;;;;;10258587;28;20318;-70
2023/08/11 14:41:15;;;;;;;2.13;2.03;;;30.90;24.10;;;;;;10261256;28;20776;-70
2023/08/11 14:46:18;;;;;;;2.37;2.17;;;31.00;24.40;;;;;;10257406;28;20331;-70
2023/08/11 14:51:23;;;;;;;2.30;2.10;;;31.10;24.30;;;;;;10252647;28;20244;-70
2023/08/11 14:56:27;;;;;;;2.40;2.20;;;31.10;24.00;;;;;;10260159;28;20236;-70
2023/08/11 15:01:31;;;;;;;2.10;2.00;;;31.20;24.00;;;;;;10269018;28;20232;-70
2023/08/11 15:06:36;;;;;;;2.30;2.20;;;31.30;23.90;;;;;;10272393;28;20236;-71
2023/08/11 15:11:39;;;;;;;2.13;2.00;;;31.40;24.00;;;;;;10261772;28;20236;-70
2023/08/11 15:16:42;;;;;;;2.10;2.00;;;31.40;24.50;;;;;;10270610;28;20247;-70
2023/08/11 15:21:47;;;;;;;2.00;1.90;;;31.50;23.90;;;;;;10266766;28;20717;-70
2023/08/11 15:26:53;;;;;;;8.47;2.67;;;31.60;23.40;;;;;;10259853;28;21007;-70
2023/08/11 15:31:56;;;;;;;2.20;2.10;;;31.60;22.70;;;;;;10264120;28;20295;-70
2023/08/11 15:37:01;;;;;;;2.07;1.97;;;31.60;23.20;;;;;;10261278;28;20231;-70
2023/08/11 15:42:04;;;;;;;2.10;2.00;;;31.60;22.80;;;;;;10264069;28;20235;-70
2023/08/11 15:47:08;;;;;;;2.37;2.00;;;31.60;23.40;;;;;;10261252;28;20755;-70
2023/08/11 15:52:13;;;;;;;2.20;2.10;;;31.60;23.40;;;;;;10258240;28;20318;-70
2023/08/11 15:57:16;;;;;;;2.13;1.93;;;31.60;22.80;;;;;;10264649;28;20239;-70
2023/08/11 16:02:19;;;;;;;2.10;2.00;;;31.70;23.30;;;;;;10266128;28;20248;-70
2023/08/11 16:07:27;;;;;;;2.27;2.17;;;31.70;23.20;;;;;;10262884;28;20712;-71
2023/08/11 16:12:30;;;;;;;1.90;1.80;;;31.80;22.90;;;;;;10262065;28;20352;-70
2023/08/11 16:17:35;;;;;;;1.90;1.80;;;31.80;23.10;;;;;;10264883;28;20294;-70
2023/08/11 16:22:40;;;;;;;2.30;2.20;;;31.80;22.90;;;;;;10259238;28;20741;-70
2023/08/11 16:27:43;;;;;;;2.20;2.10;;;31.90;22.70;;;;;;10262261;28;20232;-70
2023/08/11 16:32:46;;;;;;;2.00;1.90;;;31.90;22.90;;;;;;10260777;28;20271;-70
2023/08/11 16:37:51;;;;;;;2.20;2.10;;;32.00;22.80;;;;;;10270273;28;20290;-70
2023/08/11 16:42:54;;;;;;;1.90;1.80;;;32.00;22.20;;;;;;10262208;28;20960;-70
2023/08/11 16:47:57;;;;;;;2.57;2.37;;;32.00;22.60;;;;;;10263496;28;20231;-70
2023/08/11 16:53:02;;;;;;;2.60;2.20;;;32.00;22.50;;;;;;10262416;28;20327;-70
2023/08/11 16:58:05;;;;;;;2.20;2.10;;;32.00;22.20;;;;;;10260475;28;20263;-70
2023/08/11 17:03:09;;;;;;;2.27;2.07;;;32.00;23.10;;;;;;10262115;28;20241;-70
2023/08/11 17:08:14;;;;;;;2.33;2.23;;;32.00;23.40;;;;;;10264536;28;20236;-70
2023/08/11 17:13:17;;;;;;;2.20;2.10;;;32.00;23.30;;;;;;10253795;28;20339;-70
2023/08/11 17:18:21;;;;;;;2.00;1.90;;;32.00;23.80;;;;;;10259006;28;20301;-70
2023/08/11 17:23:26;;;;;;;3.13;2.10;;;32.00;24.20;;;;;;10253036;28;20255;-70
2023/08/11 17:28:29;;;;;;;2.50;2.30;;;31.90;24.30;;;;;;10259152;28;20239;-70
2023/08/11 17:33:32;;;;;;;2.47;2.27;;;31.70;24.10;;;;;;10257487;28;20959;-70
2023/08/11 17:38:37;;;;;;;2.07;1.97;;;31.60;24.20;;;;;;10260687;28;20263;-70
2023/08/11 17:43:40;;;;;;;2.30;2.03;;;31.40;24.40;;;;;;10263420;28;20263;-70
2023/08/11 17:48:43;;;;;;;2.30;2.10;;;31.40;24.70;;;;;;10254317;28;20961;-70
2023/08/11 17:53:48;;;;;;;2.07;1.90;;;31.20;24.90;;;;;;10263963;28;20235;-70
2023/08/11 17:59:09;;;;;;;3.03;2.40;;;31.00;25.20;;;;;;10256871;28;20267;-70
2023/08/11 18:04:13;;;;;;;3.23;2.40;;;30.90;25.20;;;;;;10261613;28;20246;-71
2023/08/11 18:09:17;;;;;;;2.50;2.30;;;30.70;25.40;;;;;;10254138;28;20268;-70
2023/08/11 18:14:21;;;;;;;3.67;3.37;;;30.60;25.80;;;;;;10258731;28;20326;-70
2023/08/11 18:19:24;;;;;;;3.07;2.87;;;30.60;25.80;;;;;;10263715;28;20291;-70
2023/08/11 18:24:28;;;;;;;6.73;3.10;;;30.40;26.00;;;;;;10263936;28;20232;-70
2023/08/11 18:29:32;;;;;;;2.97;2.77;;;30.30;26.40;;;;;;10256217;28;20279;-70
2023/08/11 18:34:35;;;;;;;3.20;2.90;;;30.20;26.50;;;;;;10269270;28;20232;-71
2023/08/11 18:39:39;;;;;;;4.23;3.73;;;30.00;26.70;;;;;;10270668;28;20298;-70
2023/08/11 18:44:43;;;;;;;5.93;5.40;;;29.90;27.10;;;;;;10269310;28;20314;-70
2023/08/11 18:49:46;;;;;;;8.13;5.13;;;29.70;26.90;;;;;;10266257;28;20302;-70
2023/08/11 18:54:50;;;;;;;8.40;4.47;;;29.50;27.10;;;;;;10268738;28;20246;-71
2023/08/11 18:59:54;;;;;;;2.77;2.50;;;29.40;27.60;;;;;;10262961;28;20275;-70
2023/08/11 19:04:57;;;;;;;2.93;2.67;;;29.30;27.60;;;;;;10259509;28;20233;-70
2023/08/11 19:10:01;;;;;;;9.27;3.27;;;29.10;27.60;;;;;;10270256;28;20240;-70
2023/08/11 19:15:05;;;;;;;7.33;4.03;;;28.90;28.10;;;;;;10262041;28;20236;-70
2023/08/11 19:20:10;;;;;;;6.13;3.90;;;28.80;28.00;;;;;;10263450;28;20267;-70
2023/08/11 19:25:15;;;;;;;10.10;3.83;;;28.60;28.10;;;;;;10266152;28;21081;-70
2023/08/11 19:30:18;;;;;;;5.00;3.10;;;28.50;28.40;;;;;;10257712;28;20232;-70
2023/08/11 19:35:21;;;;;;;4.93;3.77;;;28.40;28.40;;;;;;10258980;28;20244;-70
2023/08/11 19:40:26;;;;;;;2.63;2.43;;;28.30;28.40;;;;;;10258488;28;20320;-70
2023/08/11 19:45:30;;;;;;;4.17;3.40;;;28.20;28.80;;;;;;10263682;28;20239;-70
2023/08/11 19:50:33;;;;;;;4.07;3.67;;;28.10;28.70;;;;;;10263347;28;20235;-70
2023/08/11 19:55:39;;;;;;;5.17;4.23;;;28.00;28.60;;;;;;10260027;28;20260;-70
2023/08/11 20:00:42;;;;;;;4.63;4.20;;;27.70;29.20;;;;;;10259987;28;20294;-70
2023/08/11 20:05:46;;;;;;;4.60;3.90;;;27.50;29.10;;;;;;10259937;28;20257;-71
2023/08/11 20:10:51;;;;;;;7.90;3.50;;;27.30;29.30;;;;;;10265665;28;20239;-70
2023/08/11 20:15:57;;;;;;;3.73;3.30;;;27.10;29.80;;;;;;10265282;28;20751;-70
2023/08/11 20:21:01;;;;;;;4.17;3.23;;;26.90;29.70;;;;;;10257942;28;20239;-70
2023/08/11 20:26:05;;;;;;;5.10;3.23;;;26.70;29.60;;;;;;10257502;28;20240;-70
2023/08/11 20:31:08;;;;;;;5.40;3.17;;;26.60;29.70;;;;;;10262353;28;20231;-70
2023/08/11 20:36:12;;;;;;;3.30;3.00;;;26.40;29.60;;;;;;10260549;28;20597;-70
2023/08/11 20:41:16;;;;;;;4.37;3.00;;;26.30;30.00;;;;;;10261893;28;20257;-71
2023/08/11 20:46:19;;;;;;;3.30;2.97;;;26.30;30.40;;;;;;10261375;28;20895;-70
2023/08/11 20:51:22;;;;;;;3.00;2.80;;;26.10;30.00;;;;;;10258408;28;20292;-70
2023/08/11 20:56:27;;;;;;;6.60;3.27;;;26.10;30.40;;;;;;10257685;28;20231;-70
2023/08/11 21:01:30;;;;;;;4.07;2.70;;;26.00;30.90;;;;;;10263663;28;20290;-70
2023/08/11 21:06:34;;;;;;;3.30;3.00;;;25.90;30.70;;;;;;10266016;28;20232;-70
2023/08/11 21:11:39;;;;;;;3.97;2.60;;;25.70;30.80;;;;;;10261869;28;20244;-70
2023/08/11 21:16:44;;;;;;;3.03;2.73;;;25.60;31.20;;;;;;10258604;28;20663;-70
2023/08/11 21:21:48;;;;;;;2.57;2.37;;;25.60;31.00;;;;;;10256667;28;20235;-71
2023/08/11 21:26:57;;;;;;;2.67;2.47;;;25.40;31.00;;;;;;10258994;28;20579;-70
2023/08/11 21:32:00;;;;;;;2.47;2.27;;;25.20;31.50;;;;;;10261470;28;20253;-71
2023/08/11 21:37:03;;;;;;;3.40;3.00;;;25.00;31.40;;;;;;10264628;28;20255;-70
2023/08/11 21:42:09;;;;;;;3.03;2.80;;;24.90;31.80;;;;;;10259602;28;20238;-70
2023/08/11 21:47:12;;;;;;;4.07;2.90;;;24.70;32.50;;;;;;10256742;28;20263;-70
2023/08/11 21:52:16;;;;;;;3.83;2.80;;;24.50;32.10;;;;;;10261600;28;20232;-71
2023/08/11 21:57:20;;;;;;;2.80;2.60;;;24.30;32.40;;;;;;10258028;28;20318;-70
2023/08/11 22:02:23;;;;;;;4.97;2.70;;;24.20;33.00;;;;;;10262260;28;20267;-70
2023/08/11 22:07:27;;;;;;;4.27;3.10;;;24.00;32.80;;;;;;10260719;28;20228;-70
2023/08/11 22:12:31;;;;;;;4.23;2.93;;;23.90;33.00;;;;;;10255842;28;20240;-70
2023/08/11 22:17:34;;;;;;;5.63;2.83;;;23.80;33.70;;;;;;10260156;28;20238;-70
2023/08/11 22:22:38;;;;;;;6.13;2.93;;;23.70;33.20;;;;;;10252516;28;20619;-70
2023/08/11 22:27:43;;;;;;;3.10;2.83;;;23.70;33.50;;;;;;10251251;28;20256;-70
2023/08/11 22:32:46;;;;;;;4.03;2.90;;;23.60;33.70;;;;;;10256615;28;20246;-70
2023/08/11 22:37:49;;;;;;;4.40;2.93;;;23.60;33.50;;;;;;10257048;28;20814;-70
2023/08/11 22:42:54;;;;;;;4.73;2.80;;;23.60;33.50;;;;;;10255094;28;20334;-71
2023/08/11 22:47:57;;;;;;;4.57;3.00;;;23.60;34.30;;;;;;10260320;28;20251;-71
2023/08/11 22:53:00;;;;;;;5.07;2.87;;;23.50;33.80;;;;;;10256222;28;20235;-71
2023/08/11 22:58:05;;;;;;;3.63;2.97;;;23.50;33.80;;;;;;10255313;28;20233;-71
2023/08/11 23:03:08;;;;;;;4.13;2.90;;;23.40;34.30;;;;;;10259949;28;20248;-70
2023/08/11 23:08:11;;;;;;;2.93;2.73;;;23.30;33.80;;;;;;10252504;28;20236;-71
2023/08/11 23:13:16;;;;;;;2.70;2.50;;;23.30;34.00;;;;;;10256146;28;20227;-70
2023/08/11 23:18:19;;;;;;;3.57;2.87;;;23.20;34.40;;;;;;10260166;28;20244;-71
2023/08/11 23:23:22;;;;;;;6.13;2.90;;;23.10;34.20;;;;;;10267983;28;20739;-71
2023/08/11 23:28:28;;;;;;;2.67;2.43;;;22.90;34.30;;;;;;10266264;28;20544;-70
2023/08/11 23:33:32;;;;;;;4.73;2.77;;;22.80;34.70;;;;;;10261320;28;20242;-71
2023/08/11 23:38:37;;;;;;;3.33;2.67;;;22.70;34.60;;;;;;10264472;28;20247;-70
2023/08/11 23:43:41;;;;;;;2.30;2.20;;;22.70;34.60;;;;;;10266288;28;20232;-70
2023/08/11 23:48:45;;;;;;;3.70;2.60;;;22.70;34.90;;;;;;10258869;28;20239;-71
2023/08/11 23:53:48;;;;;;;2.47;2.27;;;22.70;34.70;;;;;;10269749;28;20232;-70
2023/08/11 23:58:52;;;;;;;2.70;2.50;;;22.70;34.60;;;;;;10266435;28;20334;-71
